createdAt,value
2019-05-23T00:00:49.063Z,93.50
2019-05-23T00:03:41.150Z,93.50
2019-05-23T00:06:28.932Z,93.50
2019-05-23T00:09:17.544Z,93.50
2019-05-23T00:11:47.922Z,93.50
2019-05-23T00:14:32.819Z,93.50
2019-05-23T00:17:02.341Z,93.50
2019-05-23T00:19:32.860Z,93.50
2019-05-23T00:22:01.660Z,93.50
2019-05-23T00:24:31.985Z,93.50
2019-05-23T00:27:02.479Z,93.60
2019-05-23T00:29:33.391Z,93.50
2019-05-23T00:32:20.550Z,93.50
2019-05-23T00:34:52.012Z,93.50
2019-05-23T00:37:23.169Z,93.50
2019-05-23T00:39:53.593Z,93.50
2019-05-23T00:42:22.957Z,93.50
2019-05-23T00:44:52.486Z,93.50
2019-05-23T00:47:22.529Z,93.60
2019-05-23T00:49:52.854Z,93.50
2019-05-23T00:52:22.225Z,93.50
2019-05-23T00:54:51.668Z,93.60
2019-05-23T00:57:22.023Z,93.50
2019-05-23T00:59:51.975Z,93.50
2019-05-23T01:02:21.332Z,93.50
2019-05-23T01:04:50.979Z,93.60
2019-05-23T01:07:21.117Z,93.60
2019-05-23T01:09:52.047Z,93.60
2019-05-23T01:12:22.502Z,93.60
2019-05-23T01:14:53.629Z,93.50
2019-05-23T01:17:23.006Z,93.60
2019-05-23T01:19:54.011Z,93.60
2019-05-23T01:22:24.014Z,93.50
2019-05-23T01:24:55.086Z,93.50
2019-05-23T01:27:25.234Z,93.50
2019-05-23T01:29:54.611Z,93.50
2019-05-23T01:32:25.643Z,93.50
2019-05-23T01:34:55.746Z,93.60
2019-05-23T01:37:25.110Z,93.60
2019-05-23T01:39:54.975Z,93.50
2019-05-23T01:42:24.420Z,93.40
2019-05-23T01:44:54.733Z,93.50
2019-05-23T01:47:24.155Z,93.50
2019-05-23T01:49:54.825Z,93.60
2019-05-23T01:52:24.667Z,93.60
2019-05-23T01:54:54.314Z,93.60
2019-05-23T01:57:24.936Z,93.60
2019-05-23T02:00:08.897Z,93.50
2019-05-23T02:02:29.371Z,93.60
2019-05-23T02:04:59.507Z,93.50
2019-05-23T02:07:29.398Z,93.90
2019-05-23T02:09:58.786Z,93.50
2019-05-23T02:12:28.743Z,93.60
2019-05-23T02:14:59.701Z,93.60
2019-05-23T02:17:29.751Z,93.60
2019-05-23T02:19:59.588Z,93.50
2019-05-23T02:22:29.012Z,93.50
2019-05-23T02:24:59.746Z,93.50
2019-05-23T02:27:29.777Z,93.60
2019-05-23T02:30:00.655Z,93.50
2019-05-23T02:32:31.076Z,93.60
2019-05-23T02:35:00.581Z,93.50
2019-05-23T02:37:50.027Z,93.50
2019-05-23T02:40:35.833Z,93.50
2019-05-23T02:43:09.692Z,93.50
2019-05-23T02:45:43.815Z,93.60
2019-05-23T02:48:15.311Z,93.50
2019-05-23T02:50:49.875Z,93.50
2019-05-23T02:53:19.351Z,93.50
2019-05-23T02:55:49.808Z,93.50
2019-05-23T02:58:20.884Z,93.50
2019-05-23T03:00:55.715Z,93.50
2019-05-23T03:03:28.252Z,93.60
2019-05-23T03:05:59.312Z,93.50
2019-05-23T03:08:31.501Z,93.50
2019-05-23T03:11:13.355Z,93.60
2019-05-23T03:13:42.742Z,93.50
2019-05-23T03:16:15.536Z,93.60
2019-05-23T03:18:49.017Z,93.60
2019-05-23T03:21:19.834Z,93.60
2019-05-23T03:24:09.413Z,93.60
2019-05-23T03:26:42.053Z,93.60
2019-05-23T03:29:11.798Z,93.60
2019-05-23T03:31:42.831Z,93.60
2019-05-23T03:34:12.351Z,93.60
2019-05-23T03:36:42.205Z,93.60
2019-05-23T03:39:11.870Z,93.50
2019-05-23T03:41:41.413Z,93.60
2019-05-23T03:44:12.428Z,93.60
2019-05-23T03:46:43.434Z,93.60
2019-05-23T03:49:14.466Z,93.60
2019-05-23T03:51:45.164Z,93.70
2019-05-23T03:54:15.199Z,93.60
2019-05-23T03:56:44.635Z,93.60
2019-05-23T03:59:14.662Z,93.60
2019-05-23T04:01:48.357Z,93.70
2019-05-23T04:04:16.293Z,93.60
2019-05-23T04:06:45.827Z,93.70
2019-05-23T04:09:16.366Z,93.60
2019-05-23T04:11:45.062Z,93.70
2019-05-23T04:14:14.432Z,93.70
2019-05-23T04:16:43.879Z,93.70
2019-05-23T04:19:13.530Z,93.80
2019-05-23T04:21:42.967Z,93.70
2019-05-23T04:24:12.343Z,93.70
2019-05-23T04:26:41.796Z,93.70
2019-05-23T04:29:11.227Z,93.70
2019-05-23T04:31:40.714Z,93.70
2019-05-23T04:34:22.828Z,93.70
2019-05-23T04:36:52.254Z,93.60
2019-05-23T04:39:34.682Z,93.70
2019-05-23T04:42:05.703Z,93.70
2019-05-23T04:44:35.256Z,93.70
2019-05-23T04:47:05.983Z,93.70
2019-05-23T04:49:39.115Z,93.70
2019-05-23T04:52:08.957Z,93.70
2019-05-23T04:54:40.378Z,93.70
2019-05-23T04:57:10.649Z,93.80
2019-05-23T04:59:59.765Z,93.80
2019-05-23T05:02:29.207Z,93.70
2019-05-23T05:04:58.637Z,93.80
2019-05-23T05:07:28.397Z,93.70
2019-05-23T05:09:58.757Z,93.70
2019-05-23T05:12:28.413Z,93.80
2019-05-23T05:14:57.777Z,93.70
2019-05-23T05:17:27.397Z,93.70
2019-05-23T05:19:56.772Z,93.70
2019-05-23T05:22:26.431Z,93.80
2019-05-23T05:24:55.782Z,93.80
2019-05-23T05:27:26.721Z,93.80
2019-05-23T05:29:56.095Z,93.80
2019-05-23T05:32:43.223Z,93.70
2019-05-23T05:34:58.111Z,93.70
2019-05-23T05:37:27.559Z,93.70
2019-05-23T05:39:56.911Z,93.80
2019-05-23T05:42:27.058Z,93.70
2019-05-23T05:44:56.452Z,93.70
2019-05-23T05:47:26.477Z,93.70
2019-05-23T05:49:55.905Z,93.70
2019-05-23T05:52:27.254Z,93.70
2019-05-23T05:54:56.705Z,93.70
2019-05-23T05:57:26.070Z,93.60
2019-05-23T05:59:55.522Z,93.50
2019-05-23T06:02:26.364Z,93.50
2019-05-23T06:04:55.869Z,93.50
2019-05-23T06:07:36.357Z,93.50
2019-05-23T06:10:08.118Z,93.50
2019-05-23T06:12:37.984Z,93.40
2019-05-23T06:15:07.819Z,93.40
2019-05-23T06:17:37.262Z,93.40
2019-05-23T06:20:07.572Z,93.40
2019-05-23T06:22:37.374Z,93.50
2019-05-23T06:25:08.976Z,93.40
2019-05-23T06:27:38.505Z,93.50
2019-05-23T06:30:10.636Z,93.40
2019-05-23T06:32:40.185Z,93.40
2019-05-23T06:35:09.719Z,93.40
2019-05-23T06:37:39.875Z,93.40
2019-05-23T06:40:09.539Z,93.40
2019-05-23T06:42:38.930Z,93.40
2019-05-23T06:45:10.562Z,93.40
2019-05-23T06:47:39.991Z,93.30
2019-05-23T06:50:15.873Z,93.30
2019-05-23T06:52:45.352Z,93.20
2019-05-23T06:55:14.684Z,93.20
2019-05-23T06:57:44.085Z,93.20
2019-05-23T07:00:15.250Z,93.20
2019-05-23T07:02:45.226Z,93.10
2019-05-23T07:05:15.653Z,93.10
2019-05-23T07:07:44.320Z,93.10
2019-05-23T07:10:13.633Z,93.20
2019-05-23T07:12:43.085Z,93.10
2019-05-23T07:15:12.624Z,93.10
2019-05-23T07:17:42.378Z,93.10
2019-05-23T07:20:12.306Z,93.10
2019-05-23T07:22:41.832Z,93.10
2019-05-23T07:25:11.771Z,93.10
2019-05-23T07:27:41.175Z,93.10
2019-05-23T07:30:26.115Z,93.10
2019-05-23T07:32:55.767Z,93.10
2019-05-23T07:35:26.274Z,93.10
2019-05-23T07:37:55.012Z,93.00
2019-05-23T07:40:24.830Z,93.10
2019-05-23T07:42:54.851Z,93.10
2019-05-23T07:45:28.702Z,93.20
2019-05-23T07:47:58.100Z,93.20
2019-05-23T07:50:27.435Z,93.10
2019-05-23T07:52:57.563Z,93.20
2019-05-23T07:55:31.258Z,93.10
2019-05-23T07:58:00.785Z,93.10
2019-05-23T08:00:34.882Z,93.20
2019-05-23T08:03:04.937Z,93.20
2019-05-23T08:05:34.557Z,93.20
2019-05-23T08:08:04.804Z,93.50
2019-05-23T08:10:34.782Z,93.20
2019-05-23T08:13:04.455Z,93.20
2019-05-23T08:15:33.920Z,93.10
2019-05-23T08:18:03.978Z,93.10
2019-05-23T08:20:33.711Z,93.00
2019-05-23T08:23:03.105Z,93.00
2019-05-23T08:25:33.101Z,93.10
2019-05-23T08:28:02.715Z,93.10
2019-05-23T08:30:32.228Z,93.10
2019-05-23T08:33:01.969Z,93.20
2019-05-23T08:35:31.330Z,93.10
2019-05-23T08:38:01.178Z,93.00
2019-05-23T08:40:30.810Z,93.10
2019-05-23T08:43:19.720Z,93.10
2019-05-23T08:45:49.233Z,93.00
2019-05-23T08:48:18.661Z,93.00
2019-05-23T08:50:51.238Z,92.90
2019-05-23T08:53:19.121Z,93.00
2019-05-23T08:55:48.751Z,93.00
2019-05-23T08:58:18.170Z,92.90
2019-05-23T09:00:48.533Z,92.90
2019-05-23T09:03:18.996Z,92.90
2019-05-23T09:05:49.860Z,92.80
2019-05-23T09:08:20.115Z,92.80
2019-05-23T09:10:51.317Z,92.80
2019-05-23T09:13:20.769Z,92.90
2019-05-23T09:15:52.760Z,92.90
2019-05-23T09:18:25.805Z,92.70
2019-05-23T09:20:55.190Z,92.60
2019-05-23T09:23:26.728Z,92.50
2019-05-23T09:25:56.162Z,92.40
2019-05-23T09:28:25.720Z,92.40
2019-05-23T09:30:55.085Z,92.20
2019-05-23T09:33:24.474Z,92.20
2019-05-23T09:35:53.831Z,92.10
2019-05-23T09:38:23.600Z,92.10
2019-05-23T09:40:52.984Z,92.00
2019-05-23T09:43:22.791Z,91.90
2019-05-23T09:45:53.796Z,92.00
2019-05-23T09:48:24.841Z,91.80
2019-05-23T09:50:54.276Z,91.80
2019-05-23T09:53:23.897Z,91.50
2019-05-23T09:55:55.797Z,91.60
2019-05-23T09:58:24.713Z,91.60
2019-05-23T10:00:54.170Z,91.60
2019-05-23T10:03:23.915Z,91.50
2019-05-23T10:05:53.271Z,91.50
2019-05-23T10:08:22.882Z,91.40
2019-05-23T10:10:52.444Z,91.40
2019-05-23T10:13:38.339Z,91.30
2019-05-23T10:15:56.759Z,91.40
2019-05-23T10:18:26.180Z,91.30
2019-05-23T10:20:55.591Z,91.40
2019-05-23T10:23:24.971Z,91.10
2019-05-23T10:25:54.329Z,91.20
2019-05-23T10:28:23.741Z,91.10
2019-05-23T10:30:53.121Z,91.10
2019-05-23T10:33:22.475Z,91.10
2019-05-23T10:36:00.383Z,91.10
2019-05-23T10:38:22.866Z,91.00
2019-05-23T10:40:52.584Z,91.00
2019-05-23T10:43:23.130Z,90.90
2019-05-23T10:45:52.050Z,91.30
2019-05-23T10:48:22.646Z,90.90
2019-05-23T10:50:52.425Z,90.90
2019-05-23T10:53:21.821Z,91.00
2019-05-23T10:55:51.288Z,90.90
2019-05-23T10:58:21.829Z,90.80
2019-05-23T11:00:50.504Z,90.80
2019-05-23T11:03:20.297Z,90.90
2019-05-23T11:05:50.031Z,90.80
2019-05-23T11:08:20.454Z,90.80
2019-05-23T11:10:49.917Z,90.80
2019-05-23T11:13:20.428Z,90.60
2019-05-23T11:15:49.879Z,90.60
2019-05-23T11:18:19.261Z,90.50
2019-05-23T11:20:48.625Z,90.40
2019-05-23T11:23:19.665Z,90.20
2019-05-23T11:25:49.311Z,90.00
2019-05-23T11:28:18.676Z,90.10
2019-05-23T11:30:52.446Z,90.00
2019-05-23T11:33:21.971Z,90.00
2019-05-23T11:35:51.400Z,89.80
2019-05-23T11:38:21.221Z,89.80
2019-05-23T11:40:50.873Z,89.70
2019-05-23T11:43:22.094Z,89.80
2019-05-23T11:45:55.832Z,89.90
2019-05-23T11:48:25.751Z,89.90
2019-05-23T11:50:55.227Z,89.70
2019-05-23T11:53:25.049Z,89.30
2019-05-23T11:56:13.932Z,89.10
2019-05-23T11:58:43.325Z,88.90
2019-05-23T12:01:20.669Z,89.00
2019-05-23T12:03:47.922Z,89.40
2019-05-23T12:06:17.909Z,89.30
2019-05-23T12:08:48.945Z,89.20
2019-05-23T12:11:18.664Z,89.10
2019-05-23T12:13:48.026Z,88.80
2019-05-23T12:16:17.576Z,88.60
2019-05-23T12:18:47.001Z,88.50
2019-05-23T12:21:16.745Z,88.60
2019-05-23T12:23:46.118Z,88.20
2019-05-23T12:26:15.480Z,88.00
2019-05-23T12:28:44.886Z,88.00
2019-05-23T12:31:14.742Z,87.60
2019-05-23T12:33:44.113Z,87.40
2019-05-23T12:36:14.561Z,87.20
2019-05-23T12:38:43.272Z,87.10
2019-05-23T12:41:14.190Z,86.40
2019-05-23T12:43:43.569Z,86.40
2019-05-23T12:46:13.017Z,86.20
2019-05-23T12:48:44.080Z,86.20
2019-05-23T12:51:17.691Z,86.10
2019-05-23T12:53:47.225Z,85.80
2019-05-23T12:56:16.598Z,84.80
2019-05-23T12:58:47.689Z,83.90
2019-05-23T13:01:18.705Z,83.90
2019-05-23T13:03:48.059Z,83.40
2019-05-23T13:06:17.439Z,83.20
2019-05-23T13:08:46.883Z,83.00
2019-05-23T13:11:16.330Z,84.00
2019-05-23T13:13:45.780Z,83.50
2019-05-23T13:16:15.125Z,82.60
2019-05-23T13:18:44.771Z,82.30
2019-05-23T13:21:14.280Z,82.20
2019-05-23T13:23:43.878Z,81.50
2019-05-23T13:26:14.587Z,81.20
2019-05-23T13:28:43.962Z,81.30
2019-05-23T13:31:13.341Z,81.50
2019-05-23T13:33:42.790Z,82.10
2019-05-23T13:36:12.236Z,81.70
2019-05-23T13:38:41.629Z,81.30
2019-05-23T13:41:10.993Z,81.10
2019-05-23T13:43:40.449Z,81.40
2019-05-23T13:46:09.815Z,81.40
2019-05-23T13:48:39.280Z,81.30
2019-05-23T13:51:08.666Z,81.00
2019-05-23T13:53:38.006Z,81.10
2019-05-23T13:56:07.647Z,81.10
2019-05-23T13:58:38.086Z,81.60
2019-05-23T14:01:10.200Z,81.70
2019-05-23T14:03:39.697Z,81.40
2019-05-23T14:06:09.509Z,80.50
2019-05-23T14:08:38.898Z,79.90
2019-05-23T14:11:08.619Z,79.90
2019-05-23T14:13:38.059Z,80.50
2019-05-23T14:16:07.492Z,80.40
2019-05-23T14:18:37.813Z,79.80
2019-05-23T14:21:07.275Z,79.40
2019-05-23T14:23:36.830Z,79.10
2019-05-23T14:26:19.957Z,78.90
2019-05-23T14:28:51.498Z,79.20
2019-05-23T14:31:21.137Z,79.30
2019-05-23T14:33:52.249Z,79.30
2019-05-23T14:36:23.376Z,78.90
2019-05-23T14:38:54.464Z,78.20
2019-05-23T14:41:25.253Z,77.90
2019-05-23T14:44:05.388Z,77.80
2019-05-23T14:46:39.715Z,77.70
2019-05-23T14:49:23.692Z,77.80
2019-05-23T14:51:56.730Z,78.30
2019-05-23T14:54:39.678Z,77.80
2019-05-23T14:57:09.048Z,77.10
2019-05-23T14:59:38.873Z,76.70
2019-05-23T15:02:09.907Z,76.20
2019-05-23T15:04:39.318Z,76.40
2019-05-23T15:07:09.008Z,76.70
2019-05-23T15:09:38.438Z,76.60
2019-05-23T15:12:08.068Z,76.00
2019-05-23T15:14:38.118Z,75.80
2019-05-23T15:17:07.861Z,76.10
2019-05-23T15:19:42.180Z,75.30
2019-05-23T15:22:08.539Z,75.30
2019-05-23T15:24:38.300Z,75.50
2019-05-23T15:27:08.208Z,75.30
2019-05-23T15:29:50.155Z,75.40
2019-05-23T15:32:20.251Z,75.10
2019-05-23T15:34:51.731Z,74.80
2019-05-23T15:37:23.930Z,75.20
2019-05-23T15:39:53.897Z,74.70
2019-05-23T15:42:23.930Z,74.60
2019-05-23T15:44:54.054Z,74.70
2019-05-23T15:47:25.923Z,74.80
2019-05-23T15:49:58.118Z,75.20
2019-05-23T15:52:47.522Z,75.10
2019-05-23T15:58:30.118Z,76.00
2019-05-23T16:01:04.873Z,76.00
2019-05-23T16:03:43.230Z,75.60
2019-05-23T16:06:17.727Z,75.90
2019-05-23T16:08:47.716Z,75.80
2019-05-23T16:11:17.768Z,76.30
2019-05-23T16:13:48.286Z,76.40
2019-05-23T16:16:18.108Z,76.70
2019-05-23T16:18:48.687Z,76.70
2019-05-23T16:21:19.010Z,76.30
2019-05-23T16:23:49.569Z,76.20
2019-05-23T16:26:19.074Z,75.60
2019-05-23T16:28:48.429Z,75.90
2019-05-23T16:31:18.034Z,76.10
2019-05-23T16:33:47.938Z,75.80
2019-05-23T16:36:17.639Z,75.90
2019-05-23T16:38:51.001Z,75.90
2019-05-23T16:41:22.188Z,75.60
2019-05-23T16:43:51.696Z,75.70
2019-05-23T16:46:21.815Z,75.20
2019-05-23T16:48:51.414Z,75.40
2019-05-23T16:51:21.251Z,75.90
2019-05-23T16:53:52.779Z,75.70
2019-05-23T16:56:33.383Z,76.00
2019-05-23T16:59:23.678Z,75.40
2019-05-23T17:02:05.548Z,75.40
2019-05-23T17:04:47.267Z,75.40
2019-05-23T17:07:30.574Z,75.50
2019-05-23T17:10:09.014Z,75.80
2019-05-23T17:12:43.788Z,75.70
2019-05-23T17:15:31.454Z,75.40
2019-05-23T17:18:15.416Z,75.50
2019-05-23T17:20:55.619Z,75.60
2019-05-23T17:23:29.632Z,76.00
2019-05-23T17:26:17.461Z,76.10
2019-05-23T17:28:48.632Z,76.20
2019-05-23T17:31:25.679Z,76.00
2019-05-23T17:33:55.076Z,76.00
2019-05-23T17:36:24.691Z,76.30
2019-05-23T17:39:08.256Z,76.50
2019-05-23T17:41:37.849Z,76.30
2019-05-23T17:44:07.556Z,76.40
2019-05-23T17:46:37.073Z,76.30
2019-05-23T17:49:06.427Z,76.50
2019-05-23T17:51:35.810Z,76.80
2019-05-23T17:54:05.391Z,77.00
2019-05-23T17:56:34.794Z,77.30
2019-05-23T17:59:04.256Z,77.50
2019-05-23T18:01:33.687Z,77.40
2019-05-23T18:04:03.741Z,77.40
2019-05-23T18:06:33.516Z,77.50
2019-05-23T18:09:05.907Z,77.30
2019-05-23T18:11:36.263Z,77.40
2019-05-23T18:14:13.436Z,77.60
2019-05-23T18:16:43.093Z,78.20
2019-05-23T18:19:12.475Z,79.20
2019-05-23T18:21:42.217Z,79.20
2019-05-23T18:24:11.898Z,79.50
2019-05-23T18:26:41.339Z,80.00
2019-05-23T18:29:11.608Z,80.10
2019-05-23T18:31:42.846Z,80.50
2019-05-23T18:34:24.698Z,80.80
2019-05-23T18:36:56.073Z,81.40
2019-05-23T18:39:27.402Z,81.50
2019-05-23T18:41:56.959Z,81.40
2019-05-23T18:44:26.920Z,81.30
2019-05-23T18:46:57.809Z,81.10
2019-05-23T18:49:37.746Z,81.10
2019-05-23T18:52:10.381Z,81.10
2019-05-23T18:54:40.157Z,81.60
2019-05-23T18:57:09.580Z,82.20
2019-05-23T18:59:39.739Z,82.50
2019-05-23T19:02:09.430Z,82.70
2019-05-23T19:04:38.802Z,82.70
2019-05-23T19:07:09.803Z,82.90
2019-05-23T19:09:39.971Z,83.00
2019-05-23T19:12:10.578Z,83.10
2019-05-23T19:14:39.957Z,83.40
2019-05-23T19:17:09.339Z,83.60
2019-05-23T19:19:38.924Z,83.90
2019-05-23T19:22:08.402Z,83.70
2019-05-23T19:24:38.112Z,83.60
2019-05-23T19:27:09.201Z,83.60
2019-05-23T19:29:40.498Z,84.60
2019-05-23T19:32:11.122Z,84.00
2019-05-23T19:34:39.820Z,84.20
2019-05-23T19:37:13.347Z,84.60
2019-05-23T19:39:43.627Z,84.70
2019-05-23T19:42:15.034Z,84.80
2019-05-23T19:45:05.772Z,84.90
2019-05-23T19:47:39.683Z,85.20
2019-05-23T19:50:09.394Z,85.50
2019-05-23T19:52:38.850Z,85.70
2019-05-23T19:55:08.582Z,85.80
2019-05-23T19:57:38.823Z,85.80
2019-05-23T20:00:09.890Z,85.80
2019-05-23T20:02:42.057Z,86.00
2019-05-23T20:05:19.465Z,86.20
2019-05-23T20:07:49.194Z,86.50
2019-05-23T20:10:19.222Z,86.50
2019-05-23T20:12:49.850Z,86.60
2019-05-23T20:15:19.705Z,86.70
2019-05-23T20:17:51.852Z,86.80
2019-05-23T20:20:20.212Z,86.90
2019-05-23T20:22:49.628Z,86.90
2019-05-23T20:25:22.545Z,86.70
2019-05-23T20:27:51.931Z,86.70
2019-05-23T20:30:43.316Z,86.40
2019-05-23T20:33:12.676Z,86.30
2019-05-23T20:35:42.085Z,86.20
2019-05-23T20:38:11.462Z,86.20
2019-05-23T20:40:40.897Z,86.20
2019-05-23T20:43:10.366Z,86.20
2019-05-23T20:45:39.913Z,86.60
2019-05-23T20:48:09.270Z,86.60
2019-05-23T20:50:38.720Z,87.00
2019-05-23T20:53:08.097Z,87.10
2019-05-23T20:55:37.531Z,87.10
2019-05-23T20:58:06.976Z,87.30
2019-05-23T21:00:44.045Z,87.50
2019-05-23T21:03:13.544Z,87.60
2019-05-23T21:05:42.909Z,87.90
2019-05-23T21:08:12.291Z,88.00
2019-05-23T21:10:46.548Z,87.90
2019-05-23T21:13:15.920Z,88.00
2019-05-23T21:15:45.409Z,87.90
2019-05-23T21:18:14.757Z,87.90
2019-05-23T21:20:44.133Z,89.10
2019-05-23T21:23:13.591Z,88.30
2019-05-23T21:25:48.362Z,88.40
2019-05-23T21:28:18.277Z,88.30
2019-05-23T21:30:47.706Z,88.60
2019-05-23T21:33:17.089Z,88.80
2019-05-23T21:35:46.641Z,89.00
2019-05-23T21:38:16.026Z,88.90
2019-05-23T21:40:45.476Z,89.40
2019-05-23T21:43:14.870Z,88.50
2019-05-23T21:45:44.319Z,87.80
2019-05-23T21:48:13.728Z,87.50
2019-05-23T21:50:43.074Z,87.00
2019-05-23T21:53:12.466Z,86.80
2019-05-23T21:55:42.487Z,86.40
2019-05-23T21:58:13.126Z,86.10
2019-05-23T22:01:06.271Z,86.00
2019-05-23T22:03:42.801Z,86.00
2019-05-23T22:06:13.893Z,85.70
2019-05-23T22:08:44.237Z,85.60
2019-05-23T22:11:13.604Z,86.10
2019-05-23T22:13:42.933Z,85.40
2019-05-23T22:16:12.822Z,85.30
2019-05-23T22:18:42.209Z,85.40
2019-05-23T22:21:12.131Z,85.30
2019-05-23T22:23:41.484Z,85.20
2019-05-23T22:26:10.884Z,85.30
2019-05-23T22:28:40.406Z,85.30
2019-05-23T22:31:10.755Z,85.40
2019-05-23T22:33:44.733Z,85.50
2019-05-23T22:36:33.615Z,85.40
2019-05-23T22:39:05.021Z,85.50
2019-05-23T22:41:53.819Z,85.50
2019-05-23T22:44:23.202Z,85.50
2019-05-23T22:46:52.719Z,85.50
2019-05-23T22:49:22.100Z,85.50
2019-05-23T22:51:51.533Z,85.60
2019-05-23T22:54:20.856Z,85.50
2019-05-23T22:56:50.293Z,85.50
2019-05-23T22:59:19.679Z,85.60
2019-05-23T23:01:49.110Z,85.40
2019-05-23T23:04:18.557Z,85.30
2019-05-23T23:06:48.004Z,85.20
2019-05-23T23:09:17.744Z,85.10
2019-05-23T23:11:47.037Z,85.10
2019-05-23T23:14:16.586Z,85.10
2019-05-23T23:16:46.290Z,85.20
2019-05-23T23:19:15.719Z,85.20
2019-05-23T23:21:45.061Z,85.30
2019-05-23T23:24:14.449Z,85.80
2019-05-23T23:26:43.836Z,85.80
2019-05-23T23:29:13.460Z,85.40
2019-05-23T23:31:42.833Z,85.40
2019-05-23T23:34:12.593Z,85.30
2019-05-23T23:36:41.975Z,85.30
2019-05-23T23:39:11.385Z,85.30
2019-05-23T23:41:40.766Z,85.30
2019-05-23T23:44:11.783Z,85.40
2019-05-23T23:46:59.028Z,85.70
2019-05-23T23:49:46.577Z,86.20
2019-05-23T23:52:34.008Z,86.30
2019-05-23T23:55:22.782Z,86.40
2019-05-23T23:58:00.747Z,86.60
